createdAt,value
2018-07-12T00:01:57.376Z,99.90
2018-07-12T00:06:53.131Z,99.90
2018-07-12T00:09:20.531Z,99.90
2018-07-12T00:11:47.906Z,99.90
2018-07-12T00:14:15.287Z,99.90
2018-07-12T00:16:42.761Z,99.90
2018-07-12T00:19:10.103Z,99.90
2018-07-12T00:21:37.444Z,99.90
2018-07-12T00:26:32.323Z,99.90
2018-07-12T00:28:59.652Z,99.90
2018-07-12T00:31:27.038Z,99.90
2018-07-12T00:33:54.446Z,99.90
2018-07-12T00:36:22.179Z,99.90
2018-07-12T00:38:50.615Z,99.90
2018-07-12T00:41:17.927Z,99.90
2018-07-12T00:43:45.335Z,99.90
2018-07-12T00:46:12.716Z,99.90
2018-07-12T00:48:40.049Z,99.90
2018-07-12T00:51:07.384Z,99.90
2018-07-12T00:53:34.662Z,99.90
2018-07-12T00:56:01.955Z,99.90
2018-07-12T00:58:29.267Z,99.90
2018-07-12T01:00:56.617Z,99.90
2018-07-12T01:03:23.991Z,99.90
2018-07-12T01:05:51.391Z,99.90
2018-07-12T01:08:18.840Z,99.90
2018-07-12T01:10:46.163Z,99.90
2018-07-12T01:13:13.514Z,99.90
2018-07-12T01:15:40.886Z,99.90
2018-07-12T01:18:08.231Z,99.90
2018-07-12T01:20:35.559Z,99.90
2018-07-12T01:23:02.873Z,99.90
2018-07-12T01:25:30.225Z,99.90
2018-07-12T01:27:57.659Z,99.90
2018-07-12T01:30:24.999Z,99.90
2018-07-12T01:32:52.431Z,99.90
2018-07-12T01:35:19.879Z,99.90
2018-07-12T01:37:47.174Z,99.90
2018-07-12T01:40:14.435Z,99.90
2018-07-12T01:42:41.787Z,99.90
2018-07-12T01:45:09.119Z,99.90
2018-07-12T01:47:36.627Z,99.90
2018-07-12T01:50:03.978Z,99.90
2018-07-12T01:52:31.267Z,99.90
2018-07-12T01:54:58.614Z,99.90
2018-07-12T01:57:26.011Z,99.90
2018-07-12T01:59:53.343Z,99.90
2018-07-12T02:02:20.951Z,99.90
2018-07-12T02:04:48.263Z,99.90
2018-07-12T02:07:15.598Z,99.90
2018-07-12T02:09:42.931Z,99.90
2018-07-12T02:12:10.288Z,99.90
2018-07-12T02:14:37.615Z,99.90
2018-07-12T02:17:05.087Z,99.90
2018-07-12T02:19:32.303Z,99.90
2018-07-12T02:21:59.608Z,99.90
2018-07-12T02:24:26.913Z,99.90
2018-07-12T02:26:54.256Z,99.90
2018-07-12T02:29:21.683Z,99.90
2018-07-12T02:31:49.100Z,99.90
2018-07-12T02:34:16.448Z,99.90
2018-07-12T02:36:50.255Z,99.90
2018-07-12T02:39:17.612Z,99.90
2018-07-12T02:41:44.880Z,99.90
2018-07-12T02:44:12.187Z,99.90
2018-07-12T02:46:39.662Z,99.90
2018-07-12T02:49:07.268Z,99.90
2018-07-12T02:51:34.565Z,99.90
2018-07-12T02:54:01.891Z,99.90
2018-07-12T02:56:29.252Z,99.90
2018-07-12T02:58:56.585Z,99.90
2018-07-12T03:01:23.956Z,99.90
2018-07-12T03:03:51.403Z,99.90
2018-07-12T03:06:18.849Z,99.90
2018-07-12T03:08:46.208Z,99.90
2018-07-12T03:11:13.584Z,99.90
2018-07-12T03:13:41.001Z,99.90
2018-07-12T03:16:08.335Z,99.90
2018-07-12T03:18:35.963Z,99.90
2018-07-12T03:21:03.264Z,99.90
2018-07-12T03:23:30.611Z,99.90
2018-07-12T03:25:57.924Z,99.90
2018-07-12T03:28:25.342Z,99.90
2018-07-12T03:30:52.780Z,99.90
2018-07-12T03:38:15.500Z,99.90
2018-07-12T03:40:42.852Z,99.90
2018-07-12T03:43:10.159Z,99.90
2018-07-12T03:45:37.511Z,99.90
2018-07-12T03:48:04.824Z,99.90
2018-07-12T03:50:32.115Z,99.90
2018-07-12T03:52:59.447Z,99.90
2018-07-12T03:55:26.790Z,99.90
2018-07-12T03:57:54.103Z,99.90
2018-07-12T04:00:21.697Z,99.90
2018-07-12T04:02:49.056Z,99.90
2018-07-12T04:05:16.369Z,99.90
2018-07-12T04:07:43.844Z,99.90
2018-07-12T04:10:11.415Z,99.90
2018-07-12T04:12:38.808Z,99.90
2018-07-12T04:15:06.158Z,99.90
2018-07-12T04:17:34.392Z,99.90
2018-07-12T04:20:03.930Z,99.90
2018-07-12T04:22:32.532Z,99.90
2018-07-12T04:24:59.847Z,99.90
2018-07-12T04:27:27.415Z,99.90
2018-07-12T04:29:56.040Z,99.90
2018-07-12T04:32:23.372Z,99.90
2018-07-12T04:34:51.240Z,99.90
2018-07-12T04:37:19.524Z,99.90
2018-07-12T04:39:47.120Z,99.90
2018-07-12T04:42:14.484Z,99.90
2018-07-12T04:44:41.843Z,99.90
2018-07-12T04:47:09.107Z,99.90
2018-07-12T04:49:36.548Z,99.90
2018-07-12T04:52:03.879Z,99.90
2018-07-12T04:54:31.209Z,99.90
2018-07-12T04:56:58.579Z,99.90
2018-07-12T04:59:25.950Z,99.90
2018-07-12T05:01:54.263Z,99.90
2018-07-12T05:04:21.745Z,99.90
2018-07-12T05:06:49.472Z,99.90
2018-07-12T05:09:16.924Z,99.90
2018-07-12T05:11:44.232Z,99.90
2018-07-12T05:14:11.576Z,99.90
2018-07-12T05:16:38.927Z,99.90
2018-07-12T05:19:06.240Z,99.90
2018-07-12T05:21:33.616Z,99.90
2018-07-12T05:24:01.185Z,99.90
2018-07-12T05:26:28.506Z,99.90
2018-07-12T05:28:55.908Z,99.90
2018-07-12T05:31:23.371Z,99.90
2018-07-12T05:33:50.728Z,99.90
2018-07-12T05:36:42.655Z,99.90
2018-07-12T05:39:11.161Z,99.90
2018-07-12T05:41:39.604Z,99.90
2018-07-12T05:44:08.276Z,99.90
2018-07-12T05:46:36.929Z,99.90
2018-07-12T05:51:33.380Z,99.90
2018-07-12T05:54:01.852Z,99.90
2018-07-12T05:56:30.351Z,99.90
2018-07-12T05:58:58.821Z,99.90
2018-07-12T06:01:38.565Z,99.90
2018-07-12T06:04:06.939Z,99.90
2018-07-12T06:06:35.367Z,99.90
2018-07-12T06:09:04.733Z,99.90
2018-07-12T06:11:33.131Z,99.90
2018-07-12T06:14:01.781Z,99.90
2018-07-12T06:16:30.183Z,99.90
2018-07-12T06:18:58.826Z,99.90
2018-07-12T06:21:27.538Z,99.90
2018-07-12T06:23:56.025Z,99.90
2018-07-12T06:26:24.535Z,99.90
2018-07-12T06:28:53.204Z,99.90
2018-07-12T06:31:22.021Z,99.90
2018-07-12T06:36:19.359Z,99.90
2018-07-12T06:38:47.836Z,99.90
2018-07-12T06:41:16.384Z,99.90
2018-07-12T06:43:44.968Z,99.90
2018-07-12T06:46:13.372Z,99.90
2018-07-12T06:48:41.851Z,99.90
2018-07-12T06:51:12.008Z,99.90
2018-07-12T06:53:40.460Z,99.90
2018-07-12T06:56:08.956Z,99.90
2018-07-12T06:58:37.402Z,99.90
2018-07-12T07:03:33.948Z,99.90
2018-07-12T07:06:02.622Z,99.90
2018-07-12T07:08:31.019Z,99.90
2018-07-12T07:10:59.487Z,99.90
2018-07-12T07:13:28.049Z,99.90
2018-07-12T07:15:56.489Z,99.90
2018-07-12T07:20:53.148Z,99.90
2018-07-12T07:23:21.739Z,99.90
2018-07-12T07:25:50.292Z,99.90
2018-07-12T07:28:18.913Z,99.90
2018-07-12T07:30:47.227Z,99.90
2018-07-12T07:33:15.665Z,99.90
2018-07-12T07:35:44.483Z,99.90
2018-07-12T07:38:12.807Z,99.90
2018-07-12T07:40:41.236Z,99.90
2018-07-12T07:43:09.778Z,99.90
2018-07-12T07:45:38.464Z,99.90
2018-07-12T07:48:06.964Z,99.90
2018-07-12T07:50:35.420Z,99.90
2018-07-12T07:53:03.987Z,99.90
2018-07-12T07:55:32.460Z,99.90
2018-07-12T07:58:00.888Z,99.90
2018-07-12T08:00:47.599Z,99.90
2018-07-12T08:03:16.339Z,99.90
2018-07-12T08:05:44.787Z,99.90
2018-07-12T08:08:13.479Z,99.90
2018-07-12T08:10:41.973Z,99.90
2018-07-12T08:13:10.426Z,99.90
2018-07-12T08:15:38.763Z,99.90
2018-07-12T08:18:07.193Z,99.90
2018-07-12T08:20:35.688Z,99.90
2018-07-12T08:23:04.124Z,99.90
2018-07-12T08:25:32.572Z,99.90
2018-07-12T08:28:12.367Z,99.90
2018-07-12T08:30:40.808Z,99.90
2018-07-12T08:33:09.259Z,99.90
2018-07-12T08:35:37.791Z,99.90
2018-07-12T08:38:13.451Z,99.90
2018-07-12T08:40:41.812Z,99.90
2018-07-12T08:43:10.448Z,99.90
2018-07-12T08:45:38.909Z,99.90
2018-07-12T08:48:07.494Z,99.90
2018-07-12T08:50:42.164Z,99.90
2018-07-12T08:56:04.672Z,99.90
2018-07-12T08:58:33.132Z,99.90
2018-07-12T09:01:01.633Z,99.90
2018-07-12T09:03:37.738Z,99.90
2018-07-12T09:06:06.201Z,99.90
2018-07-12T09:08:34.693Z,99.90
2018-07-12T09:11:10.371Z,99.90
2018-07-12T09:13:38.746Z,99.90
2018-07-12T09:16:07.219Z,99.90
2018-07-12T09:18:35.690Z,99.30
2018-07-12T09:21:04.183Z,99.90
2018-07-12T09:23:32.672Z,99.90
2018-07-12T09:29:00.849Z,99.90
2018-07-12T09:31:29.099Z,99.90
2018-07-12T09:33:57.546Z,99.50
2018-07-12T09:36:25.951Z,99.40
2018-07-12T09:38:54.332Z,99.90
2018-07-12T09:41:23.687Z,98.40
2018-07-12T09:43:52.434Z,98.20
2018-07-12T09:46:21.775Z,95.60
2018-07-12T09:48:51.163Z,95.80
2018-07-12T09:51:19.533Z,95.80
2018-07-12T09:53:48.384Z,96.90
2018-07-12T09:56:16.907Z,99.90
2018-07-12T09:58:45.211Z,96.90
2018-07-12T10:01:19.013Z,96.10
2018-07-12T10:03:51.918Z,96.10
2018-07-12T10:06:25.678Z,97.00
2018-07-12T10:08:59.845Z,99.90
2018-07-12T10:11:33.610Z,99.50
2018-07-12T10:14:07.515Z,96.30
2018-07-12T10:16:41.372Z,98.30
2018-07-12T10:19:09.852Z,99.90
2018-07-12T10:21:38.300Z,97.60
2018-07-12T10:24:06.760Z,95.50
2018-07-12T10:26:35.236Z,92.90
2018-07-12T10:29:03.662Z,94.00
2018-07-12T10:31:32.088Z,93.20
2018-07-12T10:34:00.593Z,95.90
2018-07-12T10:36:28.991Z,94.00
2018-07-12T10:38:57.378Z,93.60
2018-07-12T10:43:54.179Z,95.60
2018-07-12T10:46:22.788Z,96.90
2018-07-12T10:48:51.622Z,98.50
2018-07-12T10:51:20.204Z,99.90
2018-07-12T10:53:48.643Z,98.10
2018-07-12T10:56:17.088Z,98.20
2018-07-12T10:58:45.492Z,99.90
2018-07-12T11:01:13.934Z,97.50
2018-07-12T11:03:42.493Z,99.90
2018-07-12T11:06:10.911Z,99.00
2018-07-12T11:08:39.350Z,99.90
2018-07-12T11:11:07.775Z,99.90
2018-07-12T11:13:47.616Z,99.90
2018-07-12T11:16:17.190Z,99.90
2018-07-12T11:18:45.774Z,99.90
2018-07-12T11:21:15.318Z,99.70
2018-07-12T11:23:43.687Z,95.30
2018-07-12T11:26:12.612Z,95.40
2018-07-12T11:28:41.339Z,92.80
2018-07-12T11:31:09.917Z,91.50
2018-07-12T11:33:40.008Z,91.40
2018-07-12T11:36:08.788Z,93.00
2018-07-12T11:38:38.904Z,95.50
2018-07-12T11:41:08.104Z,92.80
2018-07-12T11:43:36.973Z,93.30
2018-07-12T11:46:06.888Z,93.60
2018-07-12T11:48:36.747Z,92.90
2018-07-12T11:51:05.384Z,92.50
2018-07-12T11:53:33.921Z,91.90
2018-07-12T11:56:02.707Z,86.60
2018-07-12T11:58:31.399Z,90.60
2018-07-12T12:01:01.700Z,92.30
2018-07-12T12:03:30.492Z,93.50
2018-07-12T12:05:59.239Z,94.80
2018-07-12T12:08:27.922Z,91.90
2018-07-12T12:10:56.511Z,94.20
2018-07-12T12:13:25.074Z,90.30
2018-07-12T12:15:53.528Z,91.40
2018-07-12T12:18:22.115Z,93.00
2018-07-12T12:20:53.086Z,94.10
2018-07-12T12:23:22.246Z,95.50
2018-07-12T12:25:50.795Z,96.90
2018-07-12T12:28:19.580Z,99.40
2018-07-12T12:30:48.456Z,95.50
2018-07-12T12:33:17.014Z,92.30
2018-07-12T12:35:45.501Z,91.00
2018-07-12T12:38:13.891Z,91.80
2018-07-12T12:40:42.303Z,93.50
2018-07-12T12:43:12.589Z,94.20
2018-07-12T12:45:43.725Z,96.40
2018-07-12T12:48:12.196Z,96.10
2018-07-12T12:50:40.672Z,96.70
2018-07-12T12:53:09.147Z,91.00
2018-07-12T12:55:37.532Z,92.10
2018-07-12T12:58:05.973Z,90.40
2018-07-12T13:00:34.336Z,90.00
2018-07-12T13:03:02.684Z,91.30
2018-07-12T13:05:31.164Z,90.10
2018-07-12T13:07:59.669Z,87.10
2018-07-12T13:10:28.516Z,87.40
2018-07-12T13:12:57.040Z,88.80
2018-07-12T13:15:25.586Z,86.50
2018-07-12T13:17:54.378Z,83.80
2018-07-12T13:20:23.053Z,90.90
2018-07-12T13:22:51.703Z,89.00
2018-07-12T13:25:21.194Z,85.60
2018-07-12T13:27:49.654Z,85.40
2018-07-12T13:30:18.477Z,83.90
2018-07-12T13:32:47.075Z,89.10
2018-07-12T13:35:15.599Z,83.90
2018-07-12T13:37:44.149Z,87.20
2018-07-12T13:42:40.842Z,86.90
2018-07-12T13:45:09.215Z,88.30
2018-07-12T13:47:37.755Z,84.20
2018-07-12T13:50:06.258Z,89.70
2018-07-12T13:52:34.652Z,81.70
2018-07-12T13:55:03.220Z,87.20
2018-07-12T13:57:31.754Z,77.60
2018-07-12T14:00:00.275Z,77.10
2018-07-12T14:02:28.801Z,81.70
2018-07-12T14:04:57.409Z,82.00
2018-07-12T14:07:25.911Z,81.50
2018-07-12T14:09:54.610Z,81.80
2018-07-12T14:12:23.286Z,85.30
2018-07-12T14:14:51.852Z,90.20
2018-07-12T14:17:23.797Z,90.50
2018-07-12T14:19:52.497Z,93.10
2018-07-12T14:22:21.563Z,92.60
2018-07-12T14:24:50.947Z,91.30
2018-07-12T14:27:19.391Z,91.70
2018-07-12T14:29:47.964Z,89.60
2018-07-12T14:32:16.732Z,91.00
2018-07-12T14:34:45.111Z,90.00
2018-07-12T14:37:13.581Z,90.00
2018-07-12T14:39:41.997Z,91.70
2018-07-12T14:42:10.416Z,92.70
2018-07-12T14:44:38.860Z,90.50
2018-07-12T14:47:07.430Z,89.60
2018-07-12T14:49:35.843Z,90.70
2018-07-12T14:52:04.328Z,91.20
2018-07-12T14:54:32.882Z,91.00
2018-07-12T14:57:01.146Z,91.90
2018-07-12T15:01:58.006Z,86.30
2018-07-12T15:04:27.030Z,90.90
2018-07-12T15:06:56.169Z,88.70
2018-07-12T15:11:53.934Z,88.90
2018-07-12T15:14:22.757Z,87.00
2018-07-12T15:16:51.816Z,87.50
2018-07-12T15:19:20.476Z,91.00
2018-07-12T15:21:49.286Z,90.50
2018-07-12T15:26:46.668Z,89.20
2018-07-12T15:29:15.448Z,87.80
2018-07-12T15:34:16.404Z,86.90
2018-07-12T15:36:44.948Z,91.60
2018-07-12T15:39:13.404Z,91.40
2018-07-12T15:41:42.212Z,90.70
2018-07-12T15:44:10.852Z,90.50
2018-07-12T15:46:39.452Z,91.00
2018-07-12T15:49:07.880Z,90.80
2018-07-12T15:51:36.781Z,90.50
2018-07-12T15:54:05.464Z,90.70
2018-07-12T15:56:34.174Z,90.80
2018-07-12T15:59:02.859Z,91.80
2018-07-12T16:01:31.292Z,91.20
2018-07-12T16:04:00.210Z,90.80
2018-07-12T16:06:28.905Z,90.80
2018-07-12T16:08:57.631Z,89.80
2018-07-12T16:11:26.110Z,91.30
2018-07-12T16:13:54.577Z,90.40
2018-07-12T16:16:23.305Z,91.70
2018-07-12T16:18:52.007Z,92.20
2018-07-12T16:21:20.996Z,92.20
2018-07-12T16:23:49.487Z,92.40
2018-07-12T16:28:46.608Z,92.00
2018-07-12T16:31:15.032Z,93.00
2018-07-12T16:33:43.435Z,92.60
2018-07-12T16:36:11.864Z,92.60
2018-07-12T16:38:40.199Z,93.70
2018-07-12T16:41:08.779Z,92.60
2018-07-12T16:43:37.199Z,91.80
2018-07-12T16:46:05.595Z,92.50
2018-07-12T16:48:34.019Z,93.40
2018-07-12T16:51:02.396Z,93.40
2018-07-12T16:53:30.876Z,92.80
2018-07-12T16:55:59.547Z,92.10
2018-07-12T16:58:28.149Z,92.10
2018-07-12T17:00:58.782Z,92.20
2018-07-12T17:03:27.639Z,92.10
2018-07-12T17:05:56.581Z,92.90
2018-07-12T17:08:25.362Z,93.10
2018-07-12T17:10:54.277Z,92.80
2018-07-12T17:13:23.130Z,92.90
2018-07-12T17:18:21.172Z,92.70
2018-07-12T17:20:49.910Z,91.40
2018-07-12T17:23:18.530Z,92.30
2018-07-12T17:25:47.116Z,91.40
2018-07-12T17:28:22.654Z,91.90
2018-07-12T17:30:51.926Z,91.90
2018-07-12T17:33:21.119Z,92.20
2018-07-12T17:35:49.601Z,92.30
2018-07-12T17:38:22.957Z,91.90
2018-07-12T17:40:52.002Z,92.40
2018-07-12T17:43:21.468Z,92.70
2018-07-12T17:45:50.708Z,93.10
2018-07-12T17:48:23.067Z,92.40
2018-07-12T17:53:20.014Z,93.50
2018-07-12T17:55:48.539Z,93.80
2018-07-12T17:58:20.125Z,94.30
2018-07-12T18:00:48.472Z,95.10
2018-07-12T18:03:16.895Z,94.90
2018-07-12T18:05:45.283Z,95.30
2018-07-12T18:08:13.671Z,95.70
2018-07-12T18:10:42.197Z,96.00
2018-07-12T18:13:10.700Z,95.60
2018-07-12T18:15:39.472Z,95.60
2018-07-12T18:20:40.457Z,97.00
2018-07-12T18:23:08.964Z,96.80
2018-07-12T18:25:37.531Z,97.40
2018-07-12T18:28:06.574Z,97.30
2018-07-12T18:30:35.049Z,97.60
2018-07-12T18:33:04.691Z,99.10
2018-07-12T18:35:34.647Z,99.10
2018-07-12T18:38:03.236Z,99.60
2018-07-12T18:40:31.736Z,99.90
2018-07-12T18:43:02.256Z,99.90
2018-07-12T18:45:34.036Z,99.90
2018-07-12T18:48:04.187Z,99.90
2018-07-12T18:50:33.781Z,99.90
2018-07-12T18:53:02.219Z,99.90
2018-07-12T18:55:30.751Z,99.90
2018-07-12T18:57:59.492Z,99.90
2018-07-12T19:00:28.994Z,99.90
2018-07-12T19:02:57.824Z,99.90
2018-07-12T19:05:27.284Z,99.90
2018-07-12T19:07:56.397Z,99.90
2018-07-12T19:10:25.600Z,99.90
2018-07-12T19:12:55.503Z,99.90
2018-07-12T19:17:54.420Z,99.90
2018-07-12T19:20:23.985Z,99.90
2018-07-12T19:22:53.545Z,99.90
2018-07-12T19:25:22.731Z,99.90
2018-07-12T19:27:52.055Z,99.90
2018-07-12T19:30:21.008Z,99.90
2018-07-12T19:32:50.301Z,99.90
2018-07-12T19:35:19.257Z,99.90
2018-07-12T19:37:49.166Z,99.90
2018-07-12T19:40:18.418Z,99.90
2018-07-12T19:42:47.107Z,99.90
2018-07-12T19:45:15.745Z,99.90
2018-07-12T19:47:44.539Z,99.90
2018-07-12T19:50:13.226Z,99.90
2018-07-12T19:52:42.016Z,99.90
2018-07-12T19:55:10.941Z,99.90
2018-07-12T19:57:40.199Z,99.90
2018-07-12T20:00:10.567Z,99.90
2018-07-12T20:02:41.247Z,99.90
2018-07-12T20:08:01.524Z,99.90
2018-07-12T20:10:30.885Z,99.90
2018-07-12T20:13:00.080Z,99.90
2018-07-12T20:15:29.071Z,99.90
2018-07-12T20:17:57.850Z,99.90
2018-07-12T20:20:26.484Z,99.90
2018-07-12T20:22:55.282Z,99.90
2018-07-12T20:25:24.235Z,99.90
2018-07-12T20:28:02.106Z,99.90
2018-07-12T20:30:30.767Z,99.90
2018-07-12T20:32:59.479Z,99.90
2018-07-12T20:35:28.263Z,99.90
2018-07-12T20:37:56.967Z,99.90
2018-07-12T20:40:26.633Z,99.90
2018-07-12T20:42:55.448Z,99.90
2018-07-12T20:45:34.908Z,99.90
2018-07-12T20:48:03.555Z,99.90
2018-07-12T20:50:32.039Z,99.90
2018-07-12T20:53:00.642Z,99.90
2018-07-12T20:55:29.468Z,99.90
2018-07-12T20:57:58.058Z,99.90
2018-07-12T21:00:26.661Z,99.90
2018-07-12T21:02:55.828Z,99.90
2018-07-12T21:05:24.742Z,99.90
2018-07-12T21:07:53.308Z,99.90
2018-07-12T21:10:22.112Z,99.90
2018-07-12T21:12:51.222Z,99.90
2018-07-12T21:15:19.648Z,99.90
2018-07-12T21:17:48.092Z,99.90
2018-07-12T21:20:16.807Z,99.90
2018-07-12T21:22:45.314Z,99.90
2018-07-12T21:25:13.856Z,99.90
2018-07-12T21:27:42.274Z,99.90
2018-07-12T21:30:11.880Z,99.90
2018-07-12T21:32:40.247Z,99.90
2018-07-12T21:35:08.991Z,99.90
2018-07-12T21:37:37.312Z,99.90
2018-07-12T21:40:05.943Z,99.90
2018-07-12T21:42:35.011Z,99.90
2018-07-12T21:45:03.522Z,99.90
2018-07-12T21:47:31.968Z,99.90
2018-07-12T21:50:00.454Z,99.90
2018-07-12T21:52:28.979Z,99.90
2018-07-12T21:54:58.023Z,99.90
2018-07-12T21:57:26.639Z,99.90
2018-07-12T21:59:55.668Z,99.90
2018-07-12T22:02:24.269Z,99.90
2018-07-12T22:04:52.950Z,99.90
2018-07-12T22:07:32.170Z,99.90
2018-07-12T22:10:00.623Z,99.90
2018-07-12T22:12:29.135Z,99.90
2018-07-12T22:14:57.672Z,99.90
2018-07-12T22:17:26.263Z,99.90
2018-07-12T22:19:55.060Z,99.90
2018-07-12T22:22:23.916Z,99.90
2018-07-12T22:24:52.627Z,99.90
2018-07-12T22:27:21.370Z,99.90
2018-07-12T22:29:50.235Z,99.90
2018-07-12T22:32:18.650Z,99.90
2018-07-12T22:34:47.253Z,99.90
2018-07-12T22:37:15.930Z,99.90
2018-07-12T22:39:44.523Z,99.90
2018-07-12T22:42:13.047Z,99.90
2018-07-12T22:44:41.404Z,99.90
2018-07-12T22:47:09.776Z,99.90
2018-07-12T22:49:38.312Z,99.90
2018-07-12T22:52:06.792Z,99.90
2018-07-12T22:54:35.302Z,99.90
2018-07-12T22:57:03.772Z,99.90
2018-07-12T22:59:32.259Z,99.90
2018-07-12T23:02:00.726Z,99.90
2018-07-12T23:04:29.387Z,99.90
2018-07-12T23:06:58.026Z,99.90
2018-07-12T23:09:26.657Z,99.90
2018-07-12T23:11:55.328Z,99.90
2018-07-12T23:14:24.461Z,99.90
2018-07-12T23:16:53.226Z,99.90
2018-07-12T23:19:21.979Z,99.90
2018-07-12T23:21:50.742Z,99.90
2018-07-12T23:24:20.241Z,99.90
2018-07-12T23:26:48.935Z,99.90
2018-07-12T23:29:17.415Z,99.90
2018-07-12T23:31:45.891Z,99.90
2018-07-12T23:34:14.412Z,99.90
2018-07-12T23:39:11.039Z,99.90
2018-07-12T23:41:39.455Z,99.90
2018-07-12T23:44:07.825Z,99.90
2018-07-12T23:46:36.256Z,99.90
2018-07-12T23:49:04.843Z,99.90
2018-07-12T23:51:33.233Z,99.90
2018-07-12T23:54:01.720Z,99.90
2018-07-12T23:56:30.734Z,99.90
2018-07-12T23:58:59.640Z,99.90
